Time;durP1;ratioP1;P1;durP2;ratioP2;P2;SDS_P1;SDS_P2;PMS_P1;PMS_P2;Temp;Humidity;BMP_temperature;BMP_pressure;BME280_temperature;BME280_humidity;BME280_pressure;Samples;Min_cycle;Max_cycle;Signal;HPM_P1;HPM_P2
2021/11/17 02:28:06;;;;;;;50.85;21.40;;;-1.30;69.20;;;;;;5056016;28;20036;-36
2021/11/17 02:30:41;;;;;;;55.30;22.33;;;-1.20;69.30;;;;;;5056322;28;20072;-35
2021/11/17 02:33:35;;;;;;;49.72;21.30;;;-1.20;69.40;;;;;;5054909;28;20108;-36
2021/11/17 02:36:19;;;;;;;48.00;21.98;;;-1.20;69.30;;;;;;5055556;28;20044;-40
2021/11/17 02:38:47;;;;;;;44.00;21.30;;;-1.20;69.30;;;;;;5056373;28;20401;-38
2021/11/17 02:41:46;;;;;;;45.50;21.10;;;-1.20;69.20;;;;;;5055850;28;20021;-39
2021/11/17 02:44:31;;;;;;;42.75;20.17;;;-1.20;69.20;;;;;;5054793;28;20041;-38
2021/11/17 02:47:03;;;;;;;40.65;19.10;;;-1.20;69.20;;;;;;5055274;28;20051;-38
2021/11/17 02:49:46;;;;;;;45.30;21.13;;;-1.20;69.20;;;;;;5056316;28;20453;-37
2021/11/17 02:52:40;;;;;;;44.30;20.70;;;-1.20;69.30;;;;;;5055666;28;20025;-35
2021/11/17 02:55:14;;;;;;;48.20;20.67;;;-1.20;69.20;;;;;;5056180;28;20056;-39
2021/11/17 02:57:48;;;;;;;44.85;20.13;;;-1.20;69.20;;;;;;5055483;28;20321;-39
2021/11/17 03:00:33;;;;;;;40.58;18.75;;;-1.20;69.20;;;;;;5056244;28;20036;-39
2021/11/17 03:03:01;;;;;;;50.85;22.85;;;-1.20;69.20;;;;;;5055495;28;20122;-36
2021/11/17 03:06:04;;;;;;;46.80;20.92;;;-1.20;69.20;;;;;;5055667;28;20069;-40
2021/11/17 03:08:41;;;;;;;46.53;21.20;;;-1.20;69.20;;;;;;5055746;28;20075;-37
2021/11/17 03:11:32;;;;;;;37.75;19.05;;;-1.20;69.10;;;;;;5055503;28;20083;-39
2021/11/17 03:14:11;;;;;;;47.47;20.13;;;-1.20;69.20;;;;;;5056038;28;20041;-39
2021/11/17 03:16:59;;;;;;;47.22;19.90;;;-1.20;69.10;;;;;;5055159;28;20421;-36
2021/11/17 03:19:34;;;;;;;42.70;18.65;;;-1.20;69.20;;;;;;5055996;28;20021;-36
2021/11/17 03:22:35;;;;;;;44.13;20.55;;;-1.20;69.10;;;;;;5055359;28;20025;-36
2021/11/17 03:25:14;;;;;;;36.10;18.37;;;-1.20;69.10;;;;;;5055939;28;20029;-39
2021/11/17 03:27:57;;;;;;;37.45;17.98;;;-1.30;69.10;;;;;;5055428;28;20033;-36
2021/11/17 03:30:38;;;;;;;44.03;19.88;;;-1.30;69.10;;;;;;5058477;28;20056;-37
2021/11/17 03:33:33;;;;;;;38.33;19.38;;;-1.30;69.20;;;;;;5059574;28;20029;-38
2021/11/17 03:36:01;;;;;;;40.83;19.17;;;-1.30;69.20;;;;;;5059629;28;20075;-36
2021/11/17 03:38:47;;;;;;;44.72;21.98;;;-1.30;69.20;;;;;;5059563;28;20029;-38
2021/11/17 03:41:25;;;;;;;42.90;19.75;;;-1.30;69.20;;;;;;5058925;28;20429;-40
2021/11/17 03:44:14;;;;;;;39.85;18.63;;;-1.30;69.20;;;;;;5059553;28;20056;-38
2021/11/17 03:46:59;;;;;;;41.83;20.17;;;-1.40;69.10;;;;;;5058800;28;20426;-38
2021/11/17 03:49:51;;;;;;;45.80;20.75;;;-1.40;69.10;;;;;;5059204;28;20094;-36
2021/11/17 03:52:25;;;;;;;47.80;21.45;;;-1.40;69.10;;;;;;5057982;28;20040;-36
2021/11/17 03:54:57;;;;;;;45.17;21.08;;;-1.40;69.10;;;;;;5059546;28;20037;-36
2021/11/17 03:57:31;;;;;;;44.50;20.45;;;-1.40;69.10;;;;;;5058952;28;20356;-39
2021/11/17 04:00:16;;;;;;;44.80;21.58;;;-1.40;69.10;;;;;;5059602;28;20437;-36
2021/11/17 04:03:13;;;;;;;38.75;18.65;;;-1.40;69.10;;;;;;5057846;28;20036;-40
2021/11/17 04:06:04;;;;;;;38.22;19.38;;;-1.40;69.10;;;;;;5059060;28;20083;-38
2021/11/17 04:08:29;;;;;;;;;;;-1.50;69.00;;;;;;5059554;28;20035;-37
2021/11/17 04:11:18;;;;;;;45.00;20.83;;;-1.50;68.90;;;;;;5058831;28;19909;-36
2021/11/17 04:14:05;;;;;;;40.97;19.42;;;-1.50;69.00;;;;;;5059111;28;20075;-36
2021/11/17 04:16:56;;;;;;;41.15;19.25;;;-1.50;69.10;;;;;;5058393;28;20472;-36
2021/11/17 04:19:22;;;;;;;;;;;-1.60;69.20;;;;;;5059729;28;20040;-36
2021/11/17 04:22:00;;;;;;;43.15;18.83;;;-1.60;69.10;;;;;;5058624;28;19905;-40
2021/11/17 04:24:28;;;;;;;40.33;20.40;;;-1.70;69.10;;;;;;5059016;28;20033;-36
2021/11/17 04:27:15;;;;;;;36.30;18.05;;;-1.70;69.30;;;;;;5058539;28;20036;-38
2021/11/17 04:29:57;;;;;;;39.38;19.40;;;-1.70;69.40;;;;;;5058803;28;20440;-35
2021/11/17 04:33:00;;;;;;;43.08;18.45;;;-1.70;69.50;;;;;;5058392;28;20025;-36
2021/11/17 04:35:50;;;;;;;40.05;19.88;;;-1.70;69.50;;;;;;5058390;28;20041;-36
2021/11/17 04:38:27;;;;;;;39.22;17.35;;;-1.70;69.50;;;;;;5058111;28;20087;-41
2021/11/17 04:41:37;;;;;;;46.05;20.90;;;-1.70;69.50;;;;;;5057009;28;20021;-39
2021/11/17 04:44:14;;;;;;;43.83;21.30;;;-1.70;69.40;;;;;;5058333;28;20048;-40
2021/11/17 04:46:52;;;;;;;47.30;22.85;;;-1.70;69.50;;;;;;5057872;28;20032;-36
2021/11/17 04:49:53;;;;;;;86.88;52.40;;;-1.60;69.50;;;;;;5058552;28;20029;-36
2021/11/17 04:52:46;;;;;;;52.08;23.67;;;-1.60;69.50;;;;;;5057690;28;20352;-39
2021/11/17 04:55:27;;;;;;;51.42;23.63;;;-1.60;69.50;;;;;;5058416;28;20052;-36
2021/11/17 04:58:31;;;;;;;50.92;24.55;;;-1.60;69.40;;;;;;5057489;28;20033;-37
2021/11/17 05:01:12;;;;;;;51.40;23.42;;;-1.60;69.40;;;;;;5039293;28;20435;-41
2021/11/17 05:03:58;;;;;;;50.55;20.88;;;-1.70;69.40;;;;;;5055579;28;20107;-39
2021/11/17 05:06:33;;;;;;;52.88;23.08;;;-1.70;69.40;;;;;;5057179;28;20340;-39
2021/11/17 05:09:07;;;;;;;51.72;23.10;;;-1.60;69.50;;;;;;5057752;28;20048;-39
2021/11/17 05:11:42;;;;;;;47.40;22.70;;;-1.60;69.40;;;;;;5057575;28;20463;-39
2021/11/17 05:14:29;;;;;;;47.42;23.55;;;-1.70;69.30;;;;;;5058117;28;20033;-39
2021/11/17 05:17:03;;;;;;;38.75;20.15;;;-1.60;69.30;;;;;;5056515;28;20025;-37
2021/11/17 05:20:00;;;;;;;44.45;21.05;;;-1.60;69.30;;;;;;5057658;28;20068;-39
2021/11/17 05:22:38;;;;;;;42.80;20.95;;;-1.60;69.20;;;;;;5057590;28;20021;-39
2021/11/17 05:25:22;;;;;;;57.92;22.85;;;-1.60;69.20;;;;;;5057946;28;20077;-37
2021/11/17 05:27:59;;;;;;;81.88;37.78;;;-1.60;69.20;;;;;;5057453;28;20033;-39
2021/11/17 05:30:34;;;;;;;103.57;41.00;;;-1.60;69.10;;;;;;5057174;28;20119;-36
2021/11/17 05:33:15;;;;;;;110.85;51.33;;;-1.60;69.00;;;;;;5057071;28;20354;-39
2021/11/17 05:35:59;;;;;;;111.88;47.78;;;-1.50;69.00;;;;;;5057278;28;20352;-37
2021/11/17 05:38:36;;;;;;;88.07;41.25;;;-1.50;69.00;;;;;;5056662;28;20029;-39
2021/11/17 05:41:40;;;;;;;98.72;41.92;;;-1.50;69.00;;;;;;5056882;28;20029;-36
2021/11/17 05:44:25;;;;;;;111.10;40.20;;;-1.40;69.10;;;;;;5056772;28;20136;-36
2021/11/17 05:47:27;;;;;;;97.05;37.72;;;-1.40;69.00;;;;;;5056689;28;20026;-37
2021/11/17 05:50:11;;;;;;;130.57;46.47;;;-1.40;69.10;;;;;;5056604;28;20064;-39
2021/11/17 05:52:46;;;;;;;151.80;50.33;;;-1.40;69.10;;;;;;5056646;28;20029;-37
2021/11/17 05:55:14;;;;;;;127.05;46.35;;;-1.40;69.00;;;;;;5051463;28;20030;-40
2021/11/17 05:58:08;;;;;;;127.25;42.88;;;-1.40;69.10;;;;;;5045196;28;20025;-36
2021/11/17 06:00:52;;;;;;;140.52;47.65;;;-1.40;69.20;;;;;;5036594;28;20057;-35
2021/11/17 06:03:39;;;;;;;126.88;48.50;;;-1.30;69.30;;;;;;5036249;28;20053;-38
2021/11/17 06:06:05;;;;;;;125.53;41.22;;;-1.20;69.30;;;;;;5036518;28;20026;-38
2021/11/17 06:08:30;;;;;;;120.25;41.30;;;-1.20;69.30;;;;;;5047742;28;20037;-36
2021/11/17 06:11:01;;;;;;;106.40;42.50;;;-1.20;69.30;;;;;;5036217;28;20034;-36
2021/11/17 06:13:27;;;;;;;107.97;40.70;;;-1.10;69.30;;;;;;5036427;28;20040;-41
2021/11/17 06:15:54;;;;;;;87.38;36.70;;;-1.10;69.30;;;;;;5036496;28;20104;-37
2021/11/17 06:18:25;;;;;;;81.93;33.20;;;-1.10;69.20;;;;;;5034857;28;20052;-37
2021/11/17 06:20:51;;;;;;;96.50;36.10;;;-1.00;69.30;;;;;;5035239;28;20030;-41
2021/11/17 06:23:23;;;;;;;165.52;58.42;;;-1.00;69.30;;;;;;5036145;28;20136;-39
2021/11/17 06:25:50;;;;;;;203.75;75.60;;;-0.90;69.30;;;;;;5036226;28;20017;-36
2021/11/17 06:28:26;;;;;;;77.75;33.22;;;-0.90;69.30;;;;;;5035911;28;20082;-38
2021/11/17 06:30:53;;;;;;;70.60;28.38;;;-0.80;69.40;;;;;;5036410;28;20033;-41
2021/11/17 06:33:20;;;;;;;56.65;22.10;;;-0.70;69.50;;;;;;5035947;28;20314;-37
2021/11/17 06:35:46;;;;;;;36.42;17.70;;;-0.70;69.30;;;;;;5035602;28;20026;-40
2021/11/17 06:38:12;;;;;;;43.97;18.55;;;-0.60;69.20;;;;;;5038234;28;20033;-36
2021/11/17 06:40:41;;;;;;;40.72;17.92;;;-0.50;69.10;;;;;;5044722;28;20418;-40
2021/11/17 06:43:08;;;;;;;78.20;33.22;;;-0.40;68.90;;;;;;5035315;28;20141;-36
2021/11/17 06:45:44;;;;;;;90.05;39.55;;;-0.40;68.70;;;;;;5035824;28;20413;-36
2021/11/17 06:48:11;;;;;;;71.65;32.95;;;-0.30;68.60;;;;;;5035644;28;20129;-36
2021/11/17 06:50:42;;;;;;;67.65;29.40;;;-0.20;68.60;;;;;;5036067;28;20029;-36
2021/11/17 06:53:08;;;;;;;98.93;37.95;;;-0.10;68.60;;;;;;5035827;28;20033;-36
2021/11/17 06:55:34;;;;;;;70.97;38.55;;;-0.10;68.40;;;;;;5035598;28;20068;-40
2021/11/17 06:58:00;;;;;;;82.57;33.88;;;0.00;68.30;;;;;;5035121;28;20065;-38
2021/11/17 07:00:28;;;;;;;85.00;47.78;;;0.10;68.20;;;;;;5035449;28;20033;-36
2021/11/17 07:02:53;;;;;;;84.13;39.10;;;0.10;68.10;;;;;;5038703;28;20100;-41
2021/11/17 07:05:21;;;;;;;106.97;43.03;;;0.10;68.00;;;;;;5054355;28;20382;-41
2021/11/17 07:07:48;;;;;;;98.70;41.92;;;0.20;68.10;;;;;;5055064;28;20103;-40
2021/11/17 07:10:16;;;;;;;85.18;41.03;;;0.20;68.00;;;;;;5055544;28;20035;-37
2021/11/17 07:12:42;;;;;;;89.43;37.60;;;0.30;67.80;;;;;;5055070;28;20075;-37
2021/11/17 07:15:11;;;;;;;75.68;35.08;;;0.40;67.70;;;;;;5054621;28;20029;-37
2021/11/17 07:17:37;;;;;;;76.60;33.90;;;0.40;67.70;;;;;;5054874;28;20075;-40
2021/11/17 07:20:05;;;;;;;75.03;33.40;;;0.40;67.60;;;;;;5055603;28;20029;-38
2021/11/17 07:22:30;;;;;;;64.28;32.90;;;0.50;67.60;;;;;;5055045;28;20057;-40
2021/11/17 07:24:56;;;;;;;75.75;34.75;;;0.50;67.60;;;;;;5055488;28;20097;-37
2021/11/17 07:27:22;;;;;;;70.68;37.53;;;0.60;67.50;;;;;;5054696;28;20028;-37
2021/11/17 07:29:49;;;;;;;80.43;39.25;;;0.60;67.40;;;;;;5055430;28;20037;-37
2021/11/17 07:32:15;;;;;;;78.82;37.42;;;0.70;67.40;;;;;;5054741;28;20040;-37
2021/11/17 07:34:41;;;;;;;86.07;42.15;;;0.70;67.10;;;;;;5055370;28;20070;-40
2021/11/17 07:37:07;;;;;;;103.95;49.08;;;0.80;67.20;;;;;;5054590;28;20032;-38
2021/11/17 07:39:33;;;;;;;115.22;48.80;;;0.90;67.20;;;;;;5055464;28;20037;-39
2021/11/17 07:41:58;;;;;;;112.45;50.20;;;1.00;67.30;;;;;;5054793;28;20313;-40
2021/11/17 07:44:24;;;;;;;117.20;49.58;;;1.00;67.00;;;;;;5055359;28;20030;-38
2021/11/17 07:46:57;;;;;;;92.85;39.13;;;1.10;67.30;;;;;;5048447;28;20037;-37
2021/11/17 07:49:24;;;;;;;73.32;32.95;;;1.20;66.40;;;;;;5036626;28;20346;-40
2021/11/17 07:51:50;;;;;;;74.60;33.50;;;1.20;66.20;;;;;;5035149;28;20034;-40
2021/11/17 07:54:17;;;;;;;53.03;25.77;;;1.30;66.20;;;;;;5035588;28;20056;-37
2021/11/17 07:56:43;;;;;;;46.13;21.90;;;1.40;66.10;;;;;;5034934;28;20064;-36
2021/11/17 07:59:13;;;;;;;42.50;19.73;;;1.50;65.90;;;;;;5035478;28;20053;-36
2021/11/17 08:01:39;;;;;;;54.22;18.35;;;1.50;65.80;;;;;;5035143;28;20043;-39
2021/11/17 08:04:05;;;;;;;38.03;19.55;;;1.60;65.70;;;;;;5034284;28;20117;-41
2021/11/17 08:06:33;;;;;;;35.17;17.98;;;1.70;65.50;;;;;;5035056;28;20072;-37
2021/11/17 08:08:59;;;;;;;70.03;29.33;;;1.70;65.40;;;;;;5033570;28;20030;-36
2021/11/17 08:11:25;;;;;;;43.65;19.85;;;1.80;65.40;;;;;;5034927;28;20422;-39
2021/11/17 08:13:52;;;;;;;47.05;23.17;;;1.90;65.10;;;;;;5035347;28;20040;-39
2021/11/17 08:16:17;;;;;;;41.80;23.38;;;2.00;65.00;;;;;;5037106;28;20479;-37
2021/11/17 08:18:43;;;;;;;35.92;20.52;;;2.00;64.70;;;;;;5039188;28;20029;-38
2021/11/17 08:21:14;;;;;;;35.53;20.33;;;2.10;64.40;;;;;;5038831;28;20037;-37
2021/11/17 08:23:40;;;;;;;47.20;22.23;;;2.10;64.00;;;;;;5049754;28;20116;-40
2021/11/17 08:26:07;;;;;;;41.35;18.70;;;2.20;64.00;;;;;;5058113;28;20456;-39
2021/11/17 08:28:33;;;;;;;32.00;18.55;;;2.30;63.90;;;;;;5058175;28;20052;-37
2021/11/17 08:30:58;;;;;;;43.33;22.70;;;2.30;63.50;;;;;;5058332;28;20079;-37
2021/11/17 08:33:24;;;;;;;39.28;21.08;;;2.40;63.50;;;;;;5057880;28;20091;-41
2021/11/17 08:35:50;;;;;;;41.42;21.70;;;2.40;63.10;;;;;;5057621;28;20418;-41
2021/11/17 08:38:20;;;;;;;45.22;23.98;;;2.50;63.10;;;;;;5057872;28;20033;-37
2021/11/17 08:40:49;;;;;;;42.35;21.85;;;2.60;63.00;;;;;;5057879;28;20032;-36
2021/11/17 08:43:18;;;;;;;41.35;20.90;;;2.60;62.60;;;;;;5057525;28;20045;-40
2021/11/17 08:45:48;;;;;;;39.88;21.20;;;2.70;62.20;;;;;;5058149;28;20345;-36
2021/11/17 08:48:15;;;;;;;53.58;30.08;;;2.70;62.00;;;;;;5057763;28;20025;-36
2021/11/17 08:50:42;;;;;;;46.17;26.00;;;2.80;62.20;;;;;;5057923;28;20032;-39
2021/11/17 08:53:12;;;;;;;45.95;26.10;;;2.80;62.20;;;;;;5057919;28;20084;-37
2021/11/17 08:55:42;;;;;;;58.75;32.17;;;2.90;62.30;;;;;;5057989;28;20037;-37
2021/11/17 08:58:08;;;;;;;62.65;34.55;;;2.90;62.30;;;;;;5056997;28;20037;-41
2021/11/17 09:00:35;;;;;;;47.40;28.40;;;2.90;62.40;;;;;;5058056;28;20038;-36
2021/11/17 09:03:04;;;;;;;44.38;27.88;;;3.00;62.40;;;;;;5057437;28;20028;-38
2021/11/17 09:05:33;;;;;;;40.28;23.45;;;3.00;62.20;;;;;;5057851;28;20426;-42
2021/11/17 09:07:59;;;;;;;56.55;31.23;;;3.10;62.30;;;;;;5057527;28;20326;-39
2021/11/17 09:10:29;;;;;;;52.50;23.85;;;3.10;62.20;;;;;;5057452;28;20041;-39
2021/11/17 09:12:56;;;;;;;35.55;17.67;;;3.20;62.20;;;;;;5057237;28;20021;-37
2021/11/17 09:15:26;;;;;;;41.55;22.77;;;3.20;62.10;;;;;;5056472;28;20123;-37
2021/11/17 09:17:51;;;;;;;51.83;28.05;;;3.30;62.00;;;;;;5051253;28;20028;-37
2021/11/17 09:20:18;;;;;;;58.70;26.10;;;3.30;62.00;;;;;;5042389;28;20342;-37
2021/11/17 09:22:45;;;;;;;45.97;24.75;;;3.40;62.00;;;;;;5037284;28;20057;-40
2021/11/17 09:25:12;;;;;;;39.42;22.30;;;3.50;61.30;;;;;;5037916;28;20111;-36
2021/11/17 09:27:41;;;;;;;68.43;28.73;;;3.50;60.60;;;;;;5037013;28;20033;-37
2021/11/17 09:30:10;;;;;;;52.70;24.20;;;3.50;59.90;;;;;;5037158;28;20104;-41
2021/11/17 09:32:36;;;;;;;66.10;27.20;;;3.60;59.80;;;;;;5037329;28;20033;-41
2021/11/17 09:35:07;;;;;;;46.92;27.23;;;3.60;60.20;;;;;;5037308;28;20029;-40
2021/11/17 09:37:33;;;;;;;51.80;26.15;;;3.60;60.10;;;;;;5033622;28;20116;-40
2021/11/17 09:39:59;;;;;;;56.83;27.23;;;3.70;60.30;;;;;;5046210;28;20037;-37
2021/11/17 09:42:25;;;;;;;44.70;25.08;;;3.70;60.20;;;;;;5051270;28;20345;-41
2021/11/17 09:44:51;;;;;;;37.35;22.38;;;3.80;60.30;;;;;;5055514;28;20025;-38
2021/11/17 09:47:21;;;;;;;47.17;26.83;;;3.80;60.30;;;;;;5044056;28;20091;-39
2021/11/17 09:49:57;;;;;;;51.58;23.33;;;3.90;60.30;;;;;;5056665;28;20056;-37
2021/11/17 09:52:28;;;;;;;63.45;31.75;;;3.90;60.00;;;;;;5056403;28;20051;-35
2021/11/17 09:55:19;;;;;;;37.15;21.05;;;3.90;60.10;;;;;;5057204;28;20315;-40
2021/11/17 09:57:47;;;;;;;;;;;4.00;60.10;;;;;;5056718;28;20435;-38
2021/11/17 10:00:25;;;;;;;28.85;17.08;;;4.00;60.30;;;;;;5057007;28;19915;-36
2021/11/17 10:02:57;;;;;;;36.28;16.88;;;4.00;60.20;;;;;;5055949;28;20338;-36
2021/11/17 10:05:34;;;;;;;31.83;16.65;;;4.00;60.10;;;;;;5056437;28;20033;-35
2021/11/17 10:13:09;;;;;;;24.75;14.05;;;4.10;60.00;;;;;;5056027;28;20029;-40
2021/11/17 10:15:39;;;;;;;35.83;20.70;;;4.10;59.90;;;;;;5056233;28;20037;-41
2021/11/17 10:18:17;;;;;;;24.30;14.43;;;4.10;59.80;;;;;;5055740;28;20069;-41
2021/11/17 10:20:50;;;;;;;23.15;13.50;;;4.10;59.70;;;;;;5056296;28;20029;-37
2021/11/17 10:23:21;;;;;;;40.85;18.42;;;4.10;59.80;;;;;;5056015;28;20104;-37
2021/11/17 10:25:51;;;;;;;30.58;15.25;;;4.20;59.80;;;;;;5054791;28;20047;-37
2021/11/17 10:28:24;;;;;;;28.80;13.80;;;4.20;59.70;;;;;;5050267;28;20033;-38
2021/11/17 10:31:05;;;;;;;27.75;13.85;;;4.30;59.50;;;;;;5044444;28;20022;-40
2021/11/17 10:33:43;;;;;;;;;;;4.30;59.40;;;;;;5036148;28;20326;-40
2021/11/17 10:36:17;;;;;;;32.05;16.50;;;4.30;59.70;;;;;;5035771;28;20183;-41
2021/11/17 10:38:47;;;;;;;27.00;13.05;;;4.30;59.50;;;;;;5035305;28;20121;-37
2021/11/17 10:41:27;;;;;;;24.55;12.35;;;4.40;59.50;;;;;;5034663;28;20033;-38
2021/11/17 10:44:03;;;;;;;21.90;11.43;;;4.40;59.30;;;;;;5035898;28;20052;-36
2021/11/17 10:46:51;;;;;;;20.95;11.30;;;4.40;59.30;;;;;;5035924;28;20276;-37
2021/11/17 10:49:24;;;;;;;21.95;12.38;;;4.50;59.20;;;;;;5035753;28;20037;-39
2021/11/17 10:52:03;;;;;;;26.33;11.40;;;4.50;59.20;;;;;;5035451;28;20446;-37
2021/11/17 10:54:32;;;;;;;17.45;11.13;;;4.50;59.10;;;;;;5036049;28;20036;-38
2021/11/17 10:57:10;;;;;;;18.85;10.65;;;4.50;59.00;;;;;;5035395;28;20045;-39
2021/11/17 10:59:37;;;;;;;14.35;8.60;;;4.60;58.90;;;;;;5035603;28;20037;-36
2021/11/17 11:02:05;;;;;;;17.88;9.10;;;4.60;59.00;;;;;;5041200;28;20375;-35
2021/11/17 11:04:37;;;;;;;15.32;9.43;;;4.70;59.00;;;;;;5055993;28;20033;-36
2021/11/17 11:07:15;;;;;;;16.80;8.35;;;4.70;58.80;;;;;;5054895;28;20117;-36
2021/11/17 11:10:02;;;;;;;20.92;11.65;;;4.80;58.80;;;;;;5055791;28;20040;-37
2021/11/17 11:12:30;;;;;;;19.17;9.30;;;4.80;58.90;;;;;;5055283;28;20036;-37
2021/11/17 11:15:04;;;;;;;27.80;9.85;;;4.90;58.80;;;;;;5055740;28;20033;-41
2021/11/17 11:17:35;;;;;;;12.23;7.50;;;5.00;58.60;;;;;;5054566;28;20036;-40
2021/11/17 11:20:16;;;;;;;19.88;10.75;;;5.00;58.40;;;;;;5055614;28;20039;-38
2021/11/17 11:23:02;;;;;;;;;;;5.10;58.20;;;;;;5055092;28;20275;-41
2021/11/17 11:26:01;;;;;;;20.77;10.30;;;5.20;58.30;;;;;;5054254;28;19919;-41
2021/11/17 11:28:45;;;;;;;18.63;10.90;;;5.20;58.20;;;;;;5054698;28;20032;-41
2021/11/17 11:31:11;;;;;;;20.15;10.27;;;5.30;58.10;;;;;;5054690;28;20029;-41
2021/11/17 11:33:37;;;;;;;18.77;9.75;;;5.30;58.10;;;;;;5055192;28;20363;-36
2021/11/17 11:36:12;;;;;;;28.67;13.45;;;5.30;58.00;;;;;;5054806;28;20144;-39
2021/11/17 11:38:44;;;;;;;19.05;9.80;;;5.40;57.80;;;;;;5055054;28;20029;-36
2021/11/17 11:41:25;;;;;;;19.63;10.35;;;5.50;57.70;;;;;;5054677;28;20112;-39
2021/11/17 11:44:19;;;;;;;14.65;8.60;;;5.50;57.70;;;;;;5054959;28;20041;-39
2021/11/17 11:46:48;;;;;;;13.93;8.35;;;5.50;57.60;;;;;;5054537;28;20444;-40
2021/11/17 11:49:32;;;;;;;15.55;8.57;;;5.50;57.60;;;;;;5055186;28;20290;-37
2021/11/17 11:52:23;;;;;;;22.52;9.40;;;5.50;57.50;;;;;;5056678;28;20037;-40
2021/11/17 11:54:53;;;;;;;17.33;8.73;;;5.50;57.60;;;;;;5059141;28;20029;-37
2021/11/17 11:57:28;;;;;;;15.67;8.60;;;5.40;57.70;;;;;;5057000;28;20456;-36
2021/11/17 12:00:23;;;;;;;13.73;8.27;;;5.40;57.80;;;;;;5059043;28;20325;-38
2021/11/17 12:02:57;;;;;;;24.77;9.00;;;5.40;58.00;;;;;;5058467;28;20086;-40
2021/11/17 12:05:38;;;;;;;17.00;7.95;;;5.30;58.10;;;;;;5057429;28;20425;-41
2021/11/17 12:08:09;;;;;;;;;;;5.40;58.20;;;;;;5058881;28;20325;-38
2021/11/17 12:10:39;;;;;;;16.00;8.35;;;5.30;58.30;;;;;;5057791;28;19912;-37
2021/11/17 12:13:22;;;;;;;15.30;8.07;;;5.30;58.50;;;;;;5058148;28;20029;-40
2021/11/17 12:16:14;;;;;;;13.23;7.63;;;5.30;58.60;;;;;;5058581;28;20037;-36
2021/11/17 12:18:48;;;;;;;17.60;8.82;;;5.30;58.70;;;;;;5058762;28;20104;-40
2021/11/17 12:21:27;;;;;;;30.70;12.45;;;5.30;58.90;;;;;;5057943;28;20075;-37
2021/11/17 12:24:08;;;;;;;20.35;8.05;;;5.30;58.90;;;;;;5058623;28;20056;-37
2021/11/17 12:26:36;;;;;;;31.52;9.85;;;5.30;58.90;;;;;;5058158;28;20079;-40
2021/11/17 12:29:05;;;;;;;25.67;11.95;;;5.30;59.00;;;;;;5058814;28;20029;-37
2021/11/17 12:31:36;;;;;;;22.80;9.30;;;5.30;59.00;;;;;;5057796;28;20029;-39
2021/11/17 12:34:24;;;;;;;12.98;8.07;;;5.30;59.00;;;;;;5058819;28;20021;-37
2021/11/17 12:36:57;;;;;;;26.88;12.38;;;5.30;59.00;;;;;;5057581;28;20047;-37
2021/11/17 12:39:27;;;;;;;14.93;8.43;;;5.30;59.00;;;;;;5058433;28;20032;-37
2021/11/17 12:41:55;;;;;;;19.15;9.45;;;5.30;59.10;;;;;;5057377;28;20414;-37
2021/11/17 12:44:24;;;;;;;14.73;8.15;;;5.20;59.10;;;;;;5058544;28;20025;-38
2021/11/17 12:47:11;;;;;;;23.90;8.88;;;5.20;59.20;;;;;;5058031;28;20116;-39
2021/11/17 12:49:41;;;;;;;14.93;8.45;;;5.20;59.30;;;;;;5058549;28;20032;-39
2021/11/17 12:52:34;;;;;;;22.67;11.48;;;5.10;59.20;;;;;;5057830;28;20033;-40
2021/11/17 12:55:07;;;;;;;27.38;11.35;;;5.10;59.20;;;;;;5058259;28;20333;-37
2021/11/17 12:57:48;;;;;;;35.35;17.90;;;5.00;59.30;;;;;;5057771;28;20115;-39
2021/11/17 13:00:13;;;;;;;;;;;4.90;59.40;;;;;;5058496;28;20444;-39
2021/11/17 13:03:03;;;;;;;26.98;14.18;;;4.90;59.60;;;;;;5056807;28;19905;-36
2021/11/17 13:05:34;;;;;;;25.30;12.52;;;4.80;59.70;;;;;;5058285;28;20057;-36
2021/11/17 13:08:02;;;;;;;23.90;12.20;;;4.80;59.80;;;;;;5057499;28;20232;-38
2021/11/17 13:10:49;;;;;;;32.90;20.00;;;4.80;60.00;;;;;;5057223;28;20033;-39
2021/11/17 13:13:22;;;;;;;36.10;18.77;;;4.70;60.00;;;;;;5057444;28;20029;-40
2021/11/17 13:15:50;;;;;;;29.27;15.18;;;4.70;60.10;;;;;;5057631;28;20040;-40
2021/11/17 13:18:36;;;;;;;28.85;15.48;;;4.70;60.20;;;;;;5057202;28;20029;-40
2021/11/17 13:21:15;;;;;;;23.90;13.45;;;4.80;60.30;;;;;;5058144;28;20095;-38
2021/11/17 13:23:45;;;;;;;29.63;15.43;;;4.80;60.30;;;;;;5057928;28;20035;-38
2021/11/17 13:26:18;;;;;;;23.75;12.90;;;4.80;60.20;;;;;;5057353;28;20033;-40
2021/11/17 13:28:51;;;;;;;18.70;10.43;;;4.80;60.20;;;;;;5057440;28;20084;-38
2021/11/17 13:31:34;;;;;;;25.05;11.30;;;4.70;60.10;;;;;;5057277;28;20033;-38
2021/11/17 13:34:04;;;;;;;21.35;11.38;;;4.70;60.10;;;;;;5057672;28;20439;-37
2021/11/17 13:37:40;;;;;;;24.05;12.88;;;4.60;60.80;;;;;;5056780;28;20057;-36
2021/11/17 13:40:20;;;;;;;29.02;13.57;;;4.60;60.30;;;;;;4995825;28;20313;-36
2021/11/17 13:42:47;;;;;;;31.65;13.05;;;4.50;60.40;;;;;;4995285;28;20050;-38
2021/11/17 13:45:23;;;;;;;31.38;11.85;;;4.50;60.50;;;;;;5030755;28;20555;-37
2021/11/17 13:47:50;;;;;;;28.75;14.20;;;4.40;60.60;;;;;;5056977;28;20032;-37
2021/11/17 13:50:19;;;;;;;34.40;18.15;;;4.40;60.80;;;;;;5057131;28;20037;-36
2021/11/17 13:52:47;;;;;;;44.63;19.27;;;4.30;60.80;;;;;;5056779;28;20025;-39
2021/11/17 13:55:18;;;;;;;35.72;16.95;;;4.30;61.00;;;;;;5057539;28;20132;-39
2021/11/17 13:57:44;;;;;;;;;;;4.20;61.60;;;;;;5056701;28;20418;-37
2021/11/17 14:00:12;;;;;;;46.35;20.52;;;4.10;61.00;;;;;;5057139;28;19955;-36
2021/11/17 14:02:39;;;;;;;59.88;30.25;;;4.00;61.10;;;;;;5056747;28;20021;-39
2021/11/17 14:05:06;;;;;;;54.22;24.55;;;4.00;61.20;;;;;;5057175;28;20024;-36
2021/11/17 14:07:33;;;;;;;47.10;19.92;;;3.90;61.30;;;;;;5056602;28;20052;-38
2021/11/17 14:09:59;;;;;;;56.15;26.85;;;3.90;61.50;;;;;;5057140;28;20069;-36
2021/11/17 14:12:25;;;;;;;53.90;25.23;;;3.80;61.60;;;;;;5056458;28;20111;-39
2021/11/17 14:14:51;;;;;;;69.57;28.17;;;3.80;61.60;;;;;;5056692;28;20395;-38
2021/11/17 14:17:17;;;;;;;60.38;23.17;;;3.70;61.60;;;;;;5056161;28;20037;-36
2021/11/17 14:19:43;;;;;;;43.92;17.27;;;3.70;61.70;;;;;;5056700;28;20099;-40
2021/11/17 14:22:09;;;;;;;60.22;18.80;;;3.60;61.90;;;;;;5056393;28;20487;-40
2021/11/17 14:24:35;;;;;;;48.60;18.67;;;3.60;62.00;;;;;;5056610;28;20112;-41
2021/11/17 14:27:03;;;;;;;45.40;19.65;;;3.50;62.00;;;;;;5055705;28;20036;-42
2021/11/17 14:29:36;;;;;;;46.38;18.58;;;3.50;62.10;;;;;;5056428;28;20108;-37
2021/11/17 14:32:08;;;;;;;42.47;19.63;;;3.40;62.20;;;;;;5055846;28;20036;-38
2021/11/17 14:34:34;;;;;;;134.85;54.60;;;3.30;62.20;;;;;;5056511;28;20058;-41
2021/11/17 14:37:05;;;;;;;93.55;42.17;;;3.30;62.30;;;;;;5048356;28;20082;-40
2021/11/17 14:39:33;;;;;;;108.53;44.08;;;3.20;62.30;;;;;;5036528;28;20033;-36
2021/11/17 14:41:59;;;;;;;80.88;35.05;;;3.20;62.40;;;;;;5035795;28;20026;-37
2021/11/17 14:44:25;;;;;;;67.70;31.63;;;3.10;62.50;;;;;;5036345;28;20440;-36
2021/11/17 14:46:51;;;;;;;63.53;29.95;;;3.10;63.20;;;;;;5035784;28;20033;-36
2021/11/17 14:49:17;;;;;;;57.03;24.38;;;3.00;62.70;;;;;;5036251;28;20420;-38
2021/11/17 14:51:43;;;;;;;57.95;27.77;;;2.90;62.70;;;;;;5035815;28;20052;-38
2021/11/17 14:54:09;;;;;;;64.57;26.27;;;2.90;62.90;;;;;;5036181;28;20033;-38
2021/11/17 14:56:37;;;;;;;50.47;21.42;;;2.80;63.00;;;;;;5035703;28;20511;-37
2021/11/17 14:59:03;;;;;;;57.20;20.98;;;2.70;63.20;;;;;;5036195;28;20025;-37
2021/11/17 15:01:33;;;;;;;54.28;21.48;;;2.60;63.30;;;;;;5035297;28;20029;-39
2021/11/17 15:04:02;;;;;;;64.00;22.15;;;2.60;64.00;;;;;;5035830;28;20436;-41
2021/11/17 15:06:29;;;;;;;55.67;22.13;;;2.60;63.50;;;;;;5035667;28;20295;-39
2021/11/17 15:08:55;;;;;;;38.67;19.83;;;2.50;63.60;;;;;;5035959;28;20326;-40
2021/11/17 15:11:22;;;;;;;48.38;21.08;;;2.50;63.70;;;;;;5035438;28;20041;-39
2021/11/17 15:13:49;;;;;;;39.55;19.92;;;2.50;63.90;;;;;;5035551;28;20108;-41
2021/11/17 15:16:15;;;;;;;44.78;21.80;;;2.40;63.90;;;;;;5035473;28;20037;-36
2021/11/17 15:18:45;;;;;;;61.55;23.35;;;2.40;64.00;;;;;;5035758;28;20521;-40
2021/11/17 15:21:14;;;;;;;52.92;21.15;;;2.40;64.20;;;;;;5035353;28;20042;-40
2021/11/17 15:23:41;;;;;;;46.83;22.95;;;2.40;64.40;;;;;;5035476;28;20025;-36
2021/11/17 15:26:07;;;;;;;54.15;26.10;;;2.30;64.50;;;;;;5040168;28;20116;-39
2021/11/17 15:28:43;;;;;;;60.35;22.98;;;2.30;64.60;;;;;;5042097;28;20048;-37
2021/11/17 15:31:13;;;;;;;66.47;28.80;;;2.30;64.80;;;;;;5040985;28;20088;-37
2021/11/17 15:33:39;;;;;;;56.30;24.43;;;2.30;64.80;;;;;;5042093;28;20029;-39
2021/11/17 15:36:07;;;;;;;75.95;29.58;;;2.30;64.80;;;;;;5042070;28;20029;-40
2021/11/17 15:38:33;;;;;;;66.47;26.08;;;2.30;65.00;;;;;;5041769;28;20034;-36
2021/11/17 15:41:02;;;;;;;67.75;31.27;;;2.30;65.10;;;;;;5041992;28;20033;-36
2021/11/17 15:43:29;;;;;;;66.85;29.10;;;2.20;65.20;;;;;;5041714;28;20041;-40